sensor_id;sensor_type;location;lat;lon;timestamp;temperature;humidity
16893;DHT22;8563;52.242;9.098;2022-08-03T00:00:17;20.70;81.50
16893;DHT22;8563;52.242;9.098;2022-08-03T00:02:49;20.70;81.50
16893;DHT22;8563;52.242;9.098;2022-08-03T00:05:22;20.60;82.00
16893;DHT22;8563;52.242;9.098;2022-08-03T00:07:56;20.60;82.60
16893;DHT22;8563;52.242;9.098;2022-08-03T00:10:29;20.50;82.30
16893;DHT22;8563;52.242;9.098;2022-08-03T00:13:01;20.60;82.20
16893;DHT22;8563;52.242;9.098;2022-08-03T00:15:33;20.50;82.60
16893;DHT22;8563;52.242;9.098;2022-08-03T00:18:06;20.50;83.00
16893;DHT22;8563;52.242;9.098;2022-08-03T00:20:39;20.40;83.30
16893;DHT22;8563;52.242;9.098;2022-08-03T00:23:14;20.40;83.30
16893;DHT22;8563;52.242;9.098;2022-08-03T00:25:46;20.40;82.60
16893;DHT22;8563;52.242;9.098;2022-08-03T00:28:19;20.40;82.30
16893;DHT22;8563;52.242;9.098;2022-08-03T00:30:51;20.50;82.40
16893;DHT22;8563;52.242;9.098;2022-08-03T00:33:25;20.50;82.30
16893;DHT22;8563;52.242;9.098;2022-08-03T00:35:58;20.50;82.30
16893;DHT22;8563;52.242;9.098;2022-08-03T00:38:32;20.50;82.90
16893;DHT22;8563;52.242;9.098;2022-08-03T00:41:04;20.40;82.00
16893;DHT22;8563;52.242;9.098;2022-08-03T00:43:37;20.40;82.00
16893;DHT22;8563;52.242;9.098;2022-08-03T00:46:10;20.40;82.10
16893;DHT22;8563;52.242;9.098;2022-08-03T00:48:42;20.40;82.50
16893;DHT22;8563;52.242;9.098;2022-08-03T00:51:15;20.40;82.60
16893;DHT22;8563;52.242;9.098;2022-08-03T00:53:49;20.40;82.60
16893;DHT22;8563;52.242;9.098;2022-08-03T00:56:21;20.40;82.60
16893;DHT22;8563;52.242;9.098;2022-08-03T00:58:56;20.30;82.70
16893;DHT22;8563;52.242;9.098;2022-08-03T01:01:29;20.30;82.80
16893;DHT22;8563;52.242;9.098;2022-08-03T01:04:02;20.30;83.00
16893;DHT22;8563;52.242;9.098;2022-08-03T01:06:42;20.30;83.20
16893;DHT22;8563;52.242;9.098;2022-08-03T01:09:22;20.30;83.20
16893;DHT22;8563;52.242;9.098;2022-08-03T01:12:02;20.20;83.20
16893;DHT22;8563;52.242;9.098;2022-08-03T01:14:40;20.20;83.30
16893;DHT22;8563;52.242;9.098;2022-08-03T01:17:21;20.20;83.40
16893;DHT22;8563;52.242;9.098;2022-08-03T01:19:59;20.20;83.20
16893;DHT22;8563;52.242;9.098;2022-08-03T01:28:53;20.10;83.80
16893;DHT22;8563;52.242;9.098;2022-08-03T01:31:34;20.10;84.00
16893;DHT22;8563;52.242;9.098;2022-08-03T01:34:10;20.10;83.90
16893;DHT22;8563;52.242;9.098;2022-08-03T01:36:50;20.00;84.00
16893;DHT22;8563;52.242;9.098;2022-08-03T01:39:24;20.00;84.10
16893;DHT22;8563;52.242;9.098;2022-08-03T01:42:00;20.00;84.30
16893;DHT22;8563;52.242;9.098;2022-08-03T01:44:39;20.00;84.60
16893;DHT22;8563;52.242;9.098;2022-08-03T01:47:15;19.90;84.90
16893;DHT22;8563;52.242;9.098;2022-08-03T01:49:50;19.90;84.60
16893;DHT22;8563;52.242;9.098;2022-08-03T01:52:24;19.90;84.60
16893;DHT22;8563;52.242;9.098;2022-08-03T01:54:57;19.90;85.00
16893;DHT22;8563;52.242;9.098;2022-08-03T01:57:30;19.80;85.10
16893;DHT22;8563;52.242;9.098;2022-08-03T02:00:04;19.80;85.10
16893;DHT22;8563;52.242;9.098;2022-08-03T02:02:46;19.80;85.30
16893;DHT22;8563;52.242;9.098;2022-08-03T02:05:19;19.80;85.20
16893;DHT22;8563;52.242;9.098;2022-08-03T02:07:53;19.80;85.20
16893;DHT22;8563;52.242;9.098;2022-08-03T02:10:27;19.80;85.10
16893;DHT22;8563;52.242;9.098;2022-08-03T02:13:03;19.80;85.00
16893;DHT22;8563;52.242;9.098;2022-08-03T02:15:37;19.80;84.90
16893;DHT22;8563;52.242;9.098;2022-08-03T02:18:12;19.80;84.80
16893;DHT22;8563;52.242;9.098;2022-08-03T02:20:45;19.80;84.90
16893;DHT22;8563;52.242;9.098;2022-08-03T02:23:18;19.80;84.70
16893;DHT22;8563;52.242;9.098;2022-08-03T02:25:58;19.80;84.70
16893;DHT22;8563;52.242;9.098;2022-08-03T02:28:34;19.80;84.60
16893;DHT22;8563;52.242;9.098;2022-08-03T02:31:13;19.80;84.90
16893;DHT22;8563;52.242;9.098;2022-08-03T02:33:49;19.80;85.20
16893;DHT22;8563;52.242;9.098;2022-08-03T02:36:26;19.70;85.00
16893;DHT22;8563;52.242;9.098;2022-08-03T02:39:00;19.70;85.20
16893;DHT22;8563;52.242;9.098;2022-08-03T02:41:37;19.70;84.80
16893;DHT22;8563;52.242;9.098;2022-08-03T02:44:12;19.70;84.90
16893;DHT22;8563;52.242;9.098;2022-08-03T02:46:47;19.70;85.00
16893;DHT22;8563;52.242;9.098;2022-08-03T02:49:22;19.60;85.00
16893;DHT22;8563;52.242;9.098;2022-08-03T02:51:57;19.70;85.70
16893;DHT22;8563;52.242;9.098;2022-08-03T02:54:31;19.60;85.50
16893;DHT22;8563;52.242;9.098;2022-08-03T02:57:07;19.60;85.60
16893;DHT22;8563;52.242;9.098;2022-08-03T02:59:41;19.60;85.80
16893;DHT22;8563;52.242;9.098;2022-08-03T03:02:15;19.60;85.80
16893;DHT22;8563;52.242;9.098;2022-08-03T03:04:52;19.50;85.80
16893;DHT22;8563;52.242;9.098;2022-08-03T03:07:26;19.50;85.90
16893;DHT22;8563;52.242;9.098;2022-08-03T03:09:58;19.50;86.00
16893;DHT22;8563;52.242;9.098;2022-08-03T03:12:32;19.50;86.20
16893;DHT22;8563;52.242;9.098;2022-08-03T03:15:06;19.50;86.00
16893;DHT22;8563;52.242;9.098;2022-08-03T03:17:38;19.50;86.00
16893;DHT22;8563;52.242;9.098;2022-08-03T03:20:14;19.50;85.90
16893;DHT22;8563;52.242;9.098;2022-08-03T03:22:47;19.50;85.90
16893;DHT22;8563;52.242;9.098;2022-08-03T03:25:20;19.50;85.90
16893;DHT22;8563;52.242;9.098;2022-08-03T03:27:53;19.50;85.80
16893;DHT22;8563;52.242;9.098;2022-08-03T03:30:27;19.40;85.80
16893;DHT22;8563;52.242;9.098;2022-08-03T03:32:59;19.40;85.90
16893;DHT22;8563;52.242;9.098;2022-08-03T03:35:34;19.40;86.00
16893;DHT22;8563;52.242;9.098;2022-08-03T03:38:06;19.40;86.20
16893;DHT22;8563;52.242;9.098;2022-08-03T03:40:39;19.40;86.00
16893;DHT22;8563;52.242;9.098;2022-08-03T03:43:12;19.40;86.30
16893;DHT22;8563;52.242;9.098;2022-08-03T03:45:46;19.40;86.40
16893;DHT22;8563;52.242;9.098;2022-08-03T03:48:19;19.40;86.40
16893;DHT22;8563;52.242;9.098;2022-08-03T03:50:53;19.40;86.40
16893;DHT22;8563;52.242;9.098;2022-08-03T03:53:27;19.40;86.30
16893;DHT22;8563;52.242;9.098;2022-08-03T03:55:59;19.40;86.10
16893;DHT22;8563;52.242;9.098;2022-08-03T03:58:32;19.40;86.10
16893;DHT22;8563;52.242;9.098;2022-08-03T04:01:04;19.40;85.90
16893;DHT22;8563;52.242;9.098;2022-08-03T04:03:38;19.40;85.80
16893;DHT22;8563;52.242;9.098;2022-08-03T04:06:13;19.40;86.00
16893;DHT22;8563;52.242;9.098;2022-08-03T04:09:03;19.40;85.80
16893;DHT22;8563;52.242;9.098;2022-08-03T04:11:55;19.40;85.70
16893;DHT22;8563;52.242;9.098;2022-08-03T04:14:32;19.40;85.70
16893;DHT22;8563;52.242;9.098;2022-08-03T04:17:08;19.50;85.60
16893;DHT22;8563;52.242;9.098;2022-08-03T04:19:46;19.50;85.40
16893;DHT22;8563;52.242;9.098;2022-08-03T04:22:25;19.50;85.40
16893;DHT22;8563;52.242;9.098;2022-08-03T04:25:01;19.60;85.20
16893;DHT22;8563;52.242;9.098;2022-08-03T04:27:37;19.60;85.10
16893;DHT22;8563;52.242;9.098;2022-08-03T04:30:10;19.70;85.00
16893;DHT22;8563;52.242;9.098;2022-08-03T04:32:44;19.70;84.40
16893;DHT22;8563;52.242;9.098;2022-08-03T04:35:22;19.80;84.40
16893;DHT22;8563;52.242;9.098;2022-08-03T04:38:01;19.80;84.00
16893;DHT22;8563;52.242;9.098;2022-08-03T04:40:35;19.90;83.70
16893;DHT22;8563;52.242;9.098;2022-08-03T04:43:09;19.90;83.50
16893;DHT22;8563;52.242;9.098;2022-08-03T04:45:43;20.00;83.10
16893;DHT22;8563;52.242;9.098;2022-08-03T04:48:18;20.10;82.90
16893;DHT22;8563;52.242;9.098;2022-08-03T04:50:51;20.20;82.80
16893;DHT22;8563;52.242;9.098;2022-08-03T04:53:26;20.20;82.40
16893;DHT22;8563;52.242;9.098;2022-08-03T04:56:03;20.30;82.30
16893;DHT22;8563;52.242;9.098;2022-08-03T04:58:36;20.30;82.00
16893;DHT22;8563;52.242;9.098;2022-08-03T05:01:08;20.30;81.90
16893;DHT22;8563;52.242;9.098;2022-08-03T05:03:41;20.50;81.60
16893;DHT22;8563;52.242;9.098;2022-08-03T05:06:13;20.50;82.00
16893;DHT22;8563;52.242;9.098;2022-08-03T05:08:47;20.60;81.30
16893;DHT22;8563;52.242;9.098;2022-08-03T05:11:20;20.60;81.30
16893;DHT22;8563;52.242;9.098;2022-08-03T05:13:52;20.60;81.10
16893;DHT22;8563;52.242;9.098;2022-08-03T05:16:25;20.70;81.00
16893;DHT22;8563;52.242;9.098;2022-08-03T05:18:57;20.70;81.00
16893;DHT22;8563;52.242;9.098;2022-08-03T05:21:30;20.80;80.90
16893;DHT22;8563;52.242;9.098;2022-08-03T05:24:04;20.90;80.40
16893;DHT22;8563;52.242;9.098;2022-08-03T05:26:36;21.00;79.80
16893;DHT22;8563;52.242;9.098;2022-08-03T05:29:09;21.00;80.00
16893;DHT22;8563;52.242;9.098;2022-08-03T05:31:41;21.00;80.30
16893;DHT22;8563;52.242;9.098;2022-08-03T05:34:14;21.00;80.60
16893;DHT22;8563;52.242;9.098;2022-08-03T05:36:46;21.00;80.40
16893;DHT22;8563;52.242;9.098;2022-08-03T05:39:20;21.00;80.10
16893;DHT22;8563;52.242;9.098;2022-08-03T05:41:53;21.10;80.40
16893;DHT22;8563;52.242;9.098;2022-08-03T05:44:25;21.20;80.20
16893;DHT22;8563;52.242;9.098;2022-08-03T05:46:59;21.40;79.10
16893;DHT22;8563;52.242;9.098;2022-08-03T05:49:31;21.40;79.30
16893;DHT22;8563;52.242;9.098;2022-08-03T05:52:04;21.50;79.20
16893;DHT22;8563;52.242;9.098;2022-08-03T05:54:38;21.50;79.60
16893;DHT22;8563;52.242;9.098;2022-08-03T05:57:11;21.50;78.70
16893;DHT22;8563;52.242;9.098;2022-08-03T05:59:43;21.60;79.20
16893;DHT22;8563;52.242;9.098;2022-08-03T06:02:16;21.60;78.60
16893;DHT22;8563;52.242;9.098;2022-08-03T06:04:49;21.70;78.20
16893;DHT22;8563;52.242;9.098;2022-08-03T06:07:21;21.80;78.40
16893;DHT22;8563;52.242;9.098;2022-08-03T06:09:55;21.80;78.50
16893;DHT22;8563;52.242;9.098;2022-08-03T06:12:27;22.00;77.20
16893;DHT22;8563;52.242;9.098;2022-08-03T06:15:01;22.20;77.00
16893;DHT22;8563;52.242;9.098;2022-08-03T06:17:41;22.40;75.70
16893;DHT22;8563;52.242;9.098;2022-08-03T06:20:16;22.90;73.60
16893;DHT22;8563;52.242;9.098;2022-08-03T06:22:49;23.90;70.50
16893;DHT22;8563;52.242;9.098;2022-08-03T06:25:23;24.70;66.80
16893;DHT22;8563;52.242;9.098;2022-08-03T06:27:55;25.20;65.10
16893;DHT22;8563;52.242;9.098;2022-08-03T06:30:29;25.50;64.10
16893;DHT22;8563;52.242;9.098;2022-08-03T06:33:02;25.70;62.90
16893;DHT22;8563;52.242;9.098;2022-08-03T06:35:34;25.70;62.50
16893;DHT22;8563;52.242;9.098;2022-08-03T06:38:07;25.20;63.40
16893;DHT22;8563;52.242;9.098;2022-08-03T06:40:41;25.20;63.40
16893;DHT22;8563;52.242;9.098;2022-08-03T06:43:13;25.20;63.60
16893;DHT22;8563;52.242;9.098;2022-08-03T06:45:46;25.30;64.00
16893;DHT22;8563;52.242;9.098;2022-08-03T06:48:18;25.50;63.00
16893;DHT22;8563;52.242;9.098;2022-08-03T06:50:51;25.80;62.90
16893;DHT22;8563;52.242;9.098;2022-08-03T06:53:24;25.90;62.10
16893;DHT22;8563;52.242;9.098;2022-08-03T06:55:57;25.80;62.10
16893;DHT22;8563;52.242;9.098;2022-08-03T06:58:30;25.50;63.20
16893;DHT22;8563;52.242;9.098;2022-08-03T07:01:02;25.70;63.40
16893;DHT22;8563;52.242;9.098;2022-08-03T07:03:35;25.70;63.50
16893;DHT22;8563;52.242;9.098;2022-08-03T07:06:07;25.70;63.60
16893;DHT22;8563;52.242;9.098;2022-08-03T07:08:40;25.70;64.50
16893;DHT22;8563;52.242;9.098;2022-08-03T07:11:14;25.80;64.80
16893;DHT22;8563;52.242;9.098;2022-08-03T07:13:46;26.00;65.40
16893;DHT22;8563;52.242;9.098;2022-08-03T07:16:18;26.00;65.30
16893;DHT22;8563;52.242;9.098;2022-08-03T07:18:51;26.10;64.80
16893;DHT22;8563;52.242;9.098;2022-08-03T07:21:23;26.20;65.10
16893;DHT22;8563;52.242;9.098;2022-08-03T07:23:56;26.40;64.40
16893;DHT22;8563;52.242;9.098;2022-08-03T07:26:30;26.60;63.30
16893;DHT22;8563;52.242;9.098;2022-08-03T07:29:03;26.50;62.90
16893;DHT22;8563;52.242;9.098;2022-08-03T07:31:35;26.50;62.70
16893;DHT22;8563;52.242;9.098;2022-08-03T07:34:08;26.40;62.60
16893;DHT22;8563;52.242;9.098;2022-08-03T07:36:41;26.60;63.60
16893;DHT22;8563;52.242;9.098;2022-08-03T07:39:13;26.60;62.30
16893;DHT22;8563;52.242;9.098;2022-08-03T07:41:48;26.40;62.30
16893;DHT22;8563;52.242;9.098;2022-08-03T07:44:21;26.20;62.40
16893;DHT22;8563;52.242;9.098;2022-08-03T07:46:54;26.10;63.30
16893;DHT22;8563;52.242;9.098;2022-08-03T07:49:27;26.10;63.20
16893;DHT22;8563;52.242;9.098;2022-08-03T07:51:59;26.10;62.80
16893;DHT22;8563;52.242;9.098;2022-08-03T07:54:48;26.10;63.00
16893;DHT22;8563;52.242;9.098;2022-08-03T07:57:22;26.20;63.50
16893;DHT22;8563;52.242;9.098;2022-08-03T07:59:54;26.20;64.10
16893;DHT22;8563;52.242;9.098;2022-08-03T08:02:27;26.20;64.00
16893;DHT22;8563;52.242;9.098;2022-08-03T08:05:00;26.30;63.30
16893;DHT22;8563;52.242;9.098;2022-08-03T08:07:32;26.40;63.10
16893;DHT22;8563;52.242;9.098;2022-08-03T08:10:06;26.40;64.00
16893;DHT22;8563;52.242;9.098;2022-08-03T08:12:41;26.50;63.20
16893;DHT22;8563;52.242;9.098;2022-08-03T08:15:13;26.60;63.90
16893;DHT22;8563;52.242;9.098;2022-08-03T08:17:48;26.60;62.80
16893;DHT22;8563;52.242;9.098;2022-08-03T08:20:24;26.60;62.80
16893;DHT22;8563;52.242;9.098;2022-08-03T08:22:58;26.70;62.80
16893;DHT22;8563;52.242;9.098;2022-08-03T08:25:31;26.80;62.30
16893;DHT22;8563;52.242;9.098;2022-08-03T08:28:05;27.00;63.20
16893;DHT22;8563;52.242;9.098;2022-08-03T08:30:38;27.10;63.20
16893;DHT22;8563;52.242;9.098;2022-08-03T08:33:10;27.10;62.40
16893;DHT22;8563;52.242;9.098;2022-08-03T08:35:43;27.20;60.90
16893;DHT22;8563;52.242;9.098;2022-08-03T08:38:16;27.30;59.70
16893;DHT22;8563;52.242;9.098;2022-08-03T08:40:49;27.40;59.50
16893;DHT22;8563;52.242;9.098;2022-08-03T08:43:23;27.40;59.50
16893;DHT22;8563;52.242;9.098;2022-08-03T08:45:57;27.50;59.40
16893;DHT22;8563;52.242;9.098;2022-08-03T08:48:30;27.50;59.30
16893;DHT22;8563;52.242;9.098;2022-08-03T08:51:03;27.60;58.70
16893;DHT22;8563;52.242;9.098;2022-08-03T08:53:37;27.60;58.60
16893;DHT22;8563;52.242;9.098;2022-08-03T08:56:13;27.70;58.10
16893;DHT22;8563;52.242;9.098;2022-08-03T08:58:50;27.80;58.60
16893;DHT22;8563;52.242;9.098;2022-08-03T09:01:23;28.00;58.40
16893;DHT22;8563;52.242;9.098;2022-08-03T09:03:56;28.10;57.60
16893;DHT22;8563;52.242;9.098;2022-08-03T09:06:28;28.20;57.80
16893;DHT22;8563;52.242;9.098;2022-08-03T09:09:02;28.30;57.40
16893;DHT22;8563;52.242;9.098;2022-08-03T09:11:37;28.40;56.80
16893;DHT22;8563;52.242;9.098;2022-08-03T09:14:14;28.40;56.60
16893;DHT22;8563;52.242;9.098;2022-08-03T09:16:56;28.30;56.50
16893;DHT22;8563;52.242;9.098;2022-08-03T09:19:41;28.30;57.70
16893;DHT22;8563;52.242;9.098;2022-08-03T09:22:14;28.40;56.30
16893;DHT22;8563;52.242;9.098;2022-08-03T09:24:54;28.60;56.40
16893;DHT22;8563;52.242;9.098;2022-08-03T09:27:28;28.70;56.30
16893;DHT22;8563;52.242;9.098;2022-08-03T09:30:15;28.80;56.10
16893;DHT22;8563;52.242;9.098;2022-08-03T09:32:48;29.00;54.60
16893;DHT22;8563;52.242;9.098;2022-08-03T09:35:26;29.00;54.60
16893;DHT22;8563;52.242;9.098;2022-08-03T09:38:09;29.10;54.30
16893;DHT22;8563;52.242;9.098;2022-08-03T09:40:43;29.00;54.30
16893;DHT22;8563;52.242;9.098;2022-08-03T09:43:15;29.10;54.00
16893;DHT22;8563;52.242;9.098;2022-08-03T09:45:50;29.10;54.50
16893;DHT22;8563;52.242;9.098;2022-08-03T09:48:33;29.00;54.20
16893;DHT22;8563;52.242;9.098;2022-08-03T09:51:07;29.10;54.00
16893;DHT22;8563;52.242;9.098;2022-08-03T09:53:43;29.10;53.90
16893;DHT22;8563;52.242;9.098;2022-08-03T09:56:15;29.10;54.30
16893;DHT22;8563;52.242;9.098;2022-08-03T09:58:48;29.10;54.60
16893;DHT22;8563;52.242;9.098;2022-08-03T10:01:31;29.20;53.90
16893;DHT22;8563;52.242;9.098;2022-08-03T10:04:04;29.30;54.40
16893;DHT22;8563;52.242;9.098;2022-08-03T10:06:37;29.50;54.60
16893;DHT22;8563;52.242;9.098;2022-08-03T10:09:11;29.50;53.60
16893;DHT22;8563;52.242;9.098;2022-08-03T10:11:44;29.50;53.30
16893;DHT22;8563;52.242;9.098;2022-08-03T10:14:18;29.50;53.70
16893;DHT22;8563;52.242;9.098;2022-08-03T10:16:54;29.60;53.40
16893;DHT22;8563;52.242;9.098;2022-08-03T10:19:26;29.60;52.70
16893;DHT22;8563;52.242;9.098;2022-08-03T10:22:02;29.60;52.70
16893;DHT22;8563;52.242;9.098;2022-08-03T10:24:36;29.80;53.10
16893;DHT22;8563;52.242;9.098;2022-08-03T10:27:10;29.90;52.30
16893;DHT22;8563;52.242;9.098;2022-08-03T10:29:46;29.80;52.10
16893;DHT22;8563;52.242;9.098;2022-08-03T10:32:27;29.90;53.10
16893;DHT22;8563;52.242;9.098;2022-08-03T10:35:04;30.00;52.30
16893;DHT22;8563;52.242;9.098;2022-08-03T10:37:41;30.10;52.40
16893;DHT22;8563;52.242;9.098;2022-08-03T10:40:15;30.00;50.50
16893;DHT22;8563;52.242;9.098;2022-08-03T10:42:53;30.00;50.30
16893;DHT22;8563;52.242;9.098;2022-08-03T10:45:27;30.00;51.10
16893;DHT22;8563;52.242;9.098;2022-08-03T10:48:04;30.00;50.40
16893;DHT22;8563;52.242;9.098;2022-08-03T10:50:36;29.80;50.00
16893;DHT22;8563;52.242;9.098;2022-08-03T10:53:10;29.60;51.10
16893;DHT22;8563;52.242;9.098;2022-08-03T10:55:44;29.70;50.80
16893;DHT22;8563;52.242;9.098;2022-08-03T10:58:54;29.90;50.80
16893;DHT22;8563;52.242;9.098;2022-08-03T11:01:49;30.10;50.80
16893;DHT22;8563;52.242;9.098;2022-08-03T11:04:24;30.20;50.10
16893;DHT22;8563;52.242;9.098;2022-08-03T11:07:19;30.40;50.10
16893;DHT22;8563;52.242;9.098;2022-08-03T11:09:54;30.50;49.50
16893;DHT22;8563;52.242;9.098;2022-08-03T11:12:28;30.50;48.80
16893;DHT22;8563;52.242;9.098;2022-08-03T11:15:03;30.60;49.40
16893;DHT22;8563;52.242;9.098;2022-08-03T11:17:36;30.60;50.00
16893;DHT22;8563;52.242;9.098;2022-08-03T11:20:11;30.40;49.00
16893;DHT22;8563;52.242;9.098;2022-08-03T11:22:47;30.30;49.40
16893;DHT22;8563;52.242;9.098;2022-08-03T11:25:20;30.20;49.20
16893;DHT22;8563;52.242;9.098;2022-08-03T11:28:26;30.30;50.30
16893;DHT22;8563;52.242;9.098;2022-08-03T11:34:06;30.30;49.00
16893;DHT22;8563;52.242;9.098;2022-08-03T11:39:48;30.30;50.40
16893;DHT22;8563;52.242;9.098;2022-08-03T11:42:40;30.40;49.70
16893;DHT22;8563;52.242;9.098;2022-08-03T11:45:15;30.30;48.90
16893;DHT22;8563;52.242;9.098;2022-08-03T11:47:53;30.20;49.30
16893;DHT22;8563;52.242;9.098;2022-08-03T11:50:35;30.10;49.90
16893;DHT22;8563;52.242;9.098;2022-08-03T11:53:13;30.10;49.70
16893;DHT22;8563;52.242;9.098;2022-08-03T11:55:48;30.10;50.20
16893;DHT22;8563;52.242;9.098;2022-08-03T11:58:23;30.20;50.00
16893;DHT22;8563;52.242;9.098;2022-08-03T12:01:03;30.10;48.80
16893;DHT22;8563;52.242;9.098;2022-08-03T12:03:36;30.10;48.80
16893;DHT22;8563;52.242;9.098;2022-08-03T12:06:10;30.20;48.50
16893;DHT22;8563;52.242;9.098;2022-08-03T12:08:43;30.20;49.50
16893;DHT22;8563;52.242;9.098;2022-08-03T12:11:18;30.30;49.80
16893;DHT22;8563;52.242;9.098;2022-08-03T12:13:50;30.40;49.20
16893;DHT22;8563;52.242;9.098;2022-08-03T12:16:24;30.30;49.80
16893;DHT22;8563;52.242;9.098;2022-08-03T12:19:01;30.30;49.00
16893;DHT22;8563;52.242;9.098;2022-08-03T12:21:33;30.30;49.50
16893;DHT22;8563;52.242;9.098;2022-08-03T12:24:06;30.30;50.80
16893;DHT22;8563;52.242;9.098;2022-08-03T12:26:44;30.20;49.90
16893;DHT22;8563;52.242;9.098;2022-08-03T12:29:17;30.20;51.10
16893;DHT22;8563;52.242;9.098;2022-08-03T12:31:49;30.40;50.10
16893;DHT22;8563;52.242;9.098;2022-08-03T12:34:22;30.40;49.60
16893;DHT22;8563;52.242;9.098;2022-08-03T12:36:55;30.40;48.70
16893;DHT22;8563;52.242;9.098;2022-08-03T12:39:28;30.30;48.30
16893;DHT22;8563;52.242;9.098;2022-08-03T12:42:03;30.30;49.70
16893;DHT22;8563;52.242;9.098;2022-08-03T12:44:35;30.40;50.30
16893;DHT22;8563;52.242;9.098;2022-08-03T12:47:08;30.40;49.10
16893;DHT22;8563;52.242;9.098;2022-08-03T12:49:45;30.40;50.20
16893;DHT22;8563;52.242;9.098;2022-08-03T12:52:19;30.30;49.50
16893;DHT22;8563;52.242;9.098;2022-08-03T12:54:56;30.40;50.20
16893;DHT22;8563;52.242;9.098;2022-08-03T12:57:41;30.40;49.90
16893;DHT22;8563;52.242;9.098;2022-08-03T13:00:15;30.40;49.90
16893;DHT22;8563;52.242;9.098;2022-08-03T13:02:58;30.40;50.20
16893;DHT22;8563;52.242;9.098;2022-08-03T13:05:32;30.40;49.00
16893;DHT22;8563;52.242;9.098;2022-08-03T13:08:17;30.30;49.90
16893;DHT22;8563;52.242;9.098;2022-08-03T13:10:50;30.30;50.10
16893;DHT22;8563;52.242;9.098;2022-08-03T13:13:39;30.40;50.50
16893;DHT22;8563;52.242;9.098;2022-08-03T13:16:12;30.40;49.40
16893;DHT22;8563;52.242;9.098;2022-08-03T13:18:44;30.40;49.00
16893;DHT22;8563;52.242;9.098;2022-08-03T13:21:18;30.40;50.30
16893;DHT22;8563;52.242;9.098;2022-08-03T13:23:51;30.40;50.20
16893;DHT22;8563;52.242;9.098;2022-08-03T13:26:23;30.50;50.00
16893;DHT22;8563;52.242;9.098;2022-08-03T13:28:58;30.40;50.20
16893;DHT22;8563;52.242;9.098;2022-08-03T13:31:30;30.40;51.30
16893;DHT22;8563;52.242;9.098;2022-08-03T13:34:03;30.50;50.10
16893;DHT22;8563;52.242;9.098;2022-08-03T13:36:35;30.50;49.40
16893;DHT22;8563;52.242;9.098;2022-08-03T13:39:07;30.40;48.90
16893;DHT22;8563;52.242;9.098;2022-08-03T13:41:40;30.40;49.30
16893;DHT22;8563;52.242;9.098;2022-08-03T13:44:14;30.40;49.50
16893;DHT22;8563;52.242;9.098;2022-08-03T13:46:47;30.40;50.90
16893;DHT22;8563;52.242;9.098;2022-08-03T13:49:20;30.50;50.60
16893;DHT22;8563;52.242;9.098;2022-08-03T13:51:52;30.50;49.90
16893;DHT22;8563;52.242;9.098;2022-08-03T13:54:25;30.50;49.90
16893;DHT22;8563;52.242;9.098;2022-08-03T13:56:57;30.50;49.40
16893;DHT22;8563;52.242;9.098;2022-08-03T13:59:31;30.40;49.90
16893;DHT22;8563;52.242;9.098;2022-08-03T14:02:04;30.50;49.50
16893;DHT22;8563;52.242;9.098;2022-08-03T14:04:37;30.60;48.50
16893;DHT22;8563;52.242;9.098;2022-08-03T14:07:09;30.60;49.00
16893;DHT22;8563;52.242;9.098;2022-08-03T14:09:44;30.60;48.90
16893;DHT22;8563;52.242;9.098;2022-08-03T14:12:16;30.60;49.10
16893;DHT22;8563;52.242;9.098;2022-08-03T14:14:50;30.60;49.00
16893;DHT22;8563;52.242;9.098;2022-08-03T14:17:23;30.70;48.90
16893;DHT22;8563;52.242;9.098;2022-08-03T14:19:55;30.60;48.90
16893;DHT22;8563;52.242;9.098;2022-08-03T14:22:28;30.60;48.50
16893;DHT22;8563;52.242;9.098;2022-08-03T14:25:00;30.60;48.00
16893;DHT22;8563;52.242;9.098;2022-08-03T14:27:32;30.60;49.70
16893;DHT22;8563;52.242;9.098;2022-08-03T14:30:08;30.60;48.60
16893;DHT22;8563;52.242;9.098;2022-08-03T14:32:40;30.60;49.20
16893;DHT22;8563;52.242;9.098;2022-08-03T14:35:13;30.60;48.70
16893;DHT22;8563;52.242;9.098;2022-08-03T14:37:45;30.50;49.70
16893;DHT22;8563;52.242;9.098;2022-08-03T14:40:18;30.50;49.80
16893;DHT22;8563;52.242;9.098;2022-08-03T14:42:51;30.50;49.00
16893;DHT22;8563;52.242;9.098;2022-08-03T14:45:24;30.40;49.30
16893;DHT22;8563;52.242;9.098;2022-08-03T14:47:57;30.40;49.00
16893;DHT22;8563;52.242;9.098;2022-08-03T14:50:30;30.50;49.10
16893;DHT22;8563;52.242;9.098;2022-08-03T14:53:02;30.50;49.70
16893;DHT22;8563;52.242;9.098;2022-08-03T14:55:35;30.40;48.80
16893;DHT22;8563;52.242;9.098;2022-08-03T14:58:08;30.40;49.30
16893;DHT22;8563;52.242;9.098;2022-08-03T15:00:42;30.40;49.00
16893;DHT22;8563;52.242;9.098;2022-08-03T15:03:14;30.30;49.30
16893;DHT22;8563;52.242;9.098;2022-08-03T15:05:50;30.40;50.40
16893;DHT22;8563;52.242;9.098;2022-08-03T15:08:24;30.40;49.30
16893;DHT22;8563;52.242;9.098;2022-08-03T15:10:56;30.30;49.20
16893;DHT22;8563;52.242;9.098;2022-08-03T15:13:29;30.40;48.90
16893;DHT22;8563;52.242;9.098;2022-08-03T15:16:03;30.30;50.20
16893;DHT22;8563;52.242;9.098;2022-08-03T15:18:36;30.20;49.40
16893;DHT22;8563;52.242;9.098;2022-08-03T15:21:09;30.30;50.20
16893;DHT22;8563;52.242;9.098;2022-08-03T15:23:41;30.30;50.00
16893;DHT22;8563;52.242;9.098;2022-08-03T15:26:14;30.30;49.50
16893;DHT22;8563;52.242;9.098;2022-08-03T15:28:46;30.30;49.40
16893;DHT22;8563;52.242;9.098;2022-08-03T15:31:21;30.30;49.50
16893;DHT22;8563;52.242;9.098;2022-08-03T15:33:54;30.20;49.60
16893;DHT22;8563;52.242;9.098;2022-08-03T15:36:26;30.20;48.70
16893;DHT22;8563;52.242;9.098;2022-08-03T15:38:59;30.20;49.20
16893;DHT22;8563;52.242;9.098;2022-08-03T15:41:32;30.10;48.20
16893;DHT22;8563;52.242;9.098;2022-08-03T15:44:04;30.10;49.00
16893;DHT22;8563;52.242;9.098;2022-08-03T15:46:38;30.10;49.30
16893;DHT22;8563;52.242;9.098;2022-08-03T15:49:10;30.10;48.90
16893;DHT22;8563;52.242;9.098;2022-08-03T15:51:43;30.10;48.60
16893;DHT22;8563;52.242;9.098;2022-08-03T15:54:15;30.20;49.10
16893;DHT22;8563;52.242;9.098;2022-08-03T15:56:47;30.20;50.10
16893;DHT22;8563;52.242;9.098;2022-08-03T15:59:20;30.20;49.90
16893;DHT22;8563;52.242;9.098;2022-08-03T16:01:54;30.20;49.00
16893;DHT22;8563;52.242;9.098;2022-08-03T16:04:27;30.20;48.30
16893;DHT22;8563;52.242;9.098;2022-08-03T16:06:59;30.20;48.60
16893;DHT22;8563;52.242;9.098;2022-08-03T16:09:32;30.30;48.60
16893;DHT22;8563;52.242;9.098;2022-08-03T16:12:05;30.20;49.00
16893;DHT22;8563;52.242;9.098;2022-08-03T16:14:37;30.20;48.70
16893;DHT22;8563;52.242;9.098;2022-08-03T16:17:11;30.20;48.40
16893;DHT22;8563;52.242;9.098;2022-08-03T16:19:44;30.20;48.70
16893;DHT22;8563;52.242;9.098;2022-08-03T16:22:16;30.30;48.70
16893;DHT22;8563;52.242;9.098;2022-08-03T16:24:49;30.20;48.50
16893;DHT22;8563;52.242;9.098;2022-08-03T16:27:22;30.20;48.50
16893;DHT22;8563;52.242;9.098;2022-08-03T16:29:55;30.20;49.70
16893;DHT22;8563;52.242;9.098;2022-08-03T16:32:29;30.10;49.00
16893;DHT22;8563;52.242;9.098;2022-08-03T16:35:02;30.00;49.30
16893;DHT22;8563;52.242;9.098;2022-08-03T16:37:35;29.90;49.10
16893;DHT22;8563;52.242;9.098;2022-08-03T16:40:10;29.90;49.70
16893;DHT22;8563;52.242;9.098;2022-08-03T16:42:43;29.80;50.20